Time;durP1;ratioP1;P1;durP2;ratioP2;P2;SDS_P1;SDS_P2;PMS_P1;PMS_P2;Temp;Humidity;BMP_temperature;BMP_pressure;BME280_temperature;BME280_humidity;BME280_pressure;Samples;Min_cycle;Max_cycle;Signal;HPM_P1;HPM_P2
2021/05/15 00:02:14;;;;;;;13.77;9.83;;;;;;;7.05;100.00;100070.75;5036933;28;20270;-75
2021/05/15 00:04:39;;;;;;;22.53;11.17;;;;;;;7.07;100.00;100073.38;5035784;28;20176;-74
2021/05/15 00:07:05;;;;;;;24.77;11.53;;;;;;;7.05;100.00;100064.59;5037406;28;20186;-74
2021/05/15 00:09:30;;;;;;;18.10;10.33;;;;;;;7.12;100.00;100063.38;5037197;28;20540;-76
2021/05/15 00:11:55;;;;;;;22.63;10.60;;;;;;;7.06;100.00;100061.00;5035964;28;20225;-75
2021/05/15 00:14:21;;;;;;;18.87;10.93;;;;;;;7.06;100.00;100071.63;5035591;28;20597;-76
2021/05/15 00:16:46;;;;;;;19.40;11.13;;;;;;;7.10;100.00;100068.75;5019326;28;20196;-76
2021/05/15 00:19:11;;;;;;;21.43;12.00;;;;;;;7.09;100.00;100067.03;5035897;28;20182;-75
2021/05/15 00:21:37;;;;;;;20.67;10.70;;;;;;;7.13;100.00;100070.41;5035286;28;20241;-76
2021/05/15 00:24:02;;;;;;;18.77;10.47;;;;;;;7.12;100.00;100072.19;5019039;28;20250;-74
2021/05/15 00:26:28;;;;;;;23.13;12.30;;;;;;;7.11;100.00;100065.16;5037638;28;20707;-75
2021/05/15 00:28:53;;;;;;;18.90;11.03;;;;;;;7.14;100.00;100074.75;5037772;28;20232;-75
2021/05/15 00:31:19;;;;;;;23.03;12.90;;;;;;;7.13;100.00;100073.03;5036996;28;20181;-76
2021/05/15 00:33:44;;;;;;;21.07;12.47;;;;;;;7.13;100.00;100068.59;5036347;28;20233;-75
2021/05/15 00:36:09;;;;;;;24.80;13.23;;;;;;;7.17;100.00;100077.25;5036848;28;20258;-74
2021/05/15 00:38:35;;;;;;;27.60;13.50;;;;;;;7.21;100.00;100065.53;5036391;28;20259;-74
2021/05/15 00:41:00;;;;;;;26.37;12.57;;;;;;;7.17;100.00;100074.59;5035871;28;20176;-74
2021/05/15 00:43:27;;;;;;;24.70;12.90;;;;;;;7.22;100.00;100068.13;5035924;28;20221;-75
2021/05/15 00:45:53;;;;;;;22.43;11.50;;;;;;;7.17;100.00;100062.19;5035616;28;20597;-75
2021/05/15 00:48:18;;;;;;;25.93;13.53;;;;;;;7.16;100.00;100063.13;5036005;28;20207;-76
2021/05/15 00:50:43;;;;;;;24.67;12.80;;;;;;;7.12;100.00;100058.91;5036289;28;20540;-74
2021/05/15 00:53:09;;;;;;;23.63;12.63;;;;;;;7.16;100.00;100068.44;5036194;28;20203;-74
2021/05/15 00:55:36;;;;;;;24.37;12.80;;;;;;;7.11;100.00;100072.28;5034894;28;20267;-75
2021/05/15 00:58:01;;;;;;;22.57;11.77;;;;;;;7.09;100.00;100069.69;5035560;28;20175;-74
2021/05/15 01:00:27;;;;;;;26.83;12.70;;;;;;;7.12;100.00;100069.53;5036057;28;20221;-74
2021/05/15 01:02:52;;;;;;;22.13;13.13;;;;;;;7.04;100.00;100079.66;5035993;28;20190;-74
2021/05/15 01:05:18;;;;;;;26.17;13.70;;;;;;;7.04;100.00;100079.66;5036156;28;20540;-74
2021/05/15 01:07:45;;;;;;;20.77;12.70;;;;;;;7.03;100.00;100069.97;5018193;28;20194;-75
2021/05/15 01:10:10;;;;;;;27.57;13.03;;;;;;;6.96;100.00;100071.22;5035312;28;20167;-74
2021/05/15 01:12:51;;;;;;;23.77;12.90;;;;;;;6.98;100.00;100071.16;5035778;28;20195;-75
2021/05/15 01:15:18;;;;;;;24.87;13.23;;;;;;;6.95;100.00;100074.81;5035878;28;20469;-75
2021/05/15 01:18:10;;;;;;;25.23;13.70;;;;;;;6.90;100.00;100074.19;5034200;28;20179;-76
2021/05/15 01:20:35;;;;;;;23.83;12.83;;;;;;;6.90;100.00;100074.19;5032347;28;20276;-75
2021/05/15 01:23:01;;;;;;;22.10;13.33;;;;;;;6.87;100.00;100084.97;5033847;28;20328;-75
2021/05/15 01:25:26;;;;;;;22.17;13.40;;;;;;;6.91;100.00;100083.88;5035036;28;20175;-74
2021/05/15 01:27:52;;;;;;;26.80;13.67;;;;;;;6.77;100.00;100081.03;5034430;28;20253;-73
2021/05/15 01:30:18;;;;;;;27.93;13.57;;;;;;;6.78;100.00;100072.16;5034919;28;20170;-73
2021/05/15 01:32:45;;;;;;;29.77;15.13;;;;;;;6.71;100.00;100074.25;5033812;28;20254;-75
2021/05/15 01:35:11;;;;;;;29.23;14.77;;;;;;;6.65;100.00;100076.31;5035243;28;20198;-75
2021/05/15 01:37:37;;;;;;;28.67;15.30;;;;;;;6.75;100.00;100072.31;5034830;28;20671;-74
2021/05/15 01:40:04;;;;;;;28.30;15.27;;;;;;;6.68;100.00;100071.72;5033807;28;20587;-75
2021/05/15 01:42:30;;;;;;;24.50;13.87;;;;;;;6.66;100.00;100076.25;5033413;28;20261;-74
2021/05/15 01:44:55;;;;;;;28.43;14.70;;;;;;;6.57;100.00;100079.34;5033564;28;20575;-73
2021/05/15 01:47:20;;;;;;;24.67;13.93;;;;;;;6.57;100.00;100082.84;5035771;28;20168;-74
2021/05/15 01:49:49;;;;;;;27.90;15.17;;;;;;;6.57;100.00;100085.50;5035969;28;20207;-74
2021/05/15 01:52:15;;;;;;;29.80;15.73;;;;;;;6.54;100.00;100090.09;5035365;28;20690;-73
2021/05/15 01:54:41;;;;;;;30.77;16.30;;;;;;;6.62;100.00;100087.06;5033980;28;20659;-74
2021/05/15 01:57:06;;;;;;;30.27;15.90;;;;;;;6.56;100.00;100085.59;5033407;28;20234;-73
2021/05/15 01:59:31;;;;;;;30.57;16.70;;;;;;;6.55;100.00;100086.53;5035167;28;20619;-73
2021/05/15 02:01:57;;;;;;;31.83;16.13;;;;;;;6.52;100.00;100089.31;5033051;28;20195;-73
2021/05/15 02:04:22;;;;;;;36.20;17.77;;;;;;;6.55;100.00;100087.38;5033263;28;20180;-73
2021/05/15 02:06:47;;;;;;;28.57;16.90;;;;;;;6.56;100.00;100078.50;5033600;28;20178;-73
2021/05/15 02:09:13;;;;;;;30.33;16.60;;;;;;;6.52;100.00;100082.22;5034849;28;20169;-73
2021/05/15 02:11:39;;;;;;;32.10;18.20;;;;;;;6.49;100.00;100074.41;5034273;28;20569;-74
2021/05/15 02:14:04;;;;;;;40.80;18.67;;;;;;;6.50;100.00;100062.88;5034634;28;20675;-75
2021/05/15 02:16:30;;;;;;;41.73;18.60;;;;;;;6.40;100.00;100069.56;5034259;28;20218;-74
2021/05/15 02:18:55;;;;;;;31.97;17.40;;;;;;;6.37;100.00;100068.84;5034581;28;20222;-75
2021/05/15 02:21:20;;;;;;;35.80;19.40;;;;;;;6.32;100.00;100073.50;5034063;28;20641;-74
2021/05/15 02:23:45;;;;;;;33.90;18.87;;;;;;;6.32;100.00;100063.78;5034342;28;20670;-74
2021/05/15 02:26:11;;;;;;;34.33;19.43;;;;;;;6.36;100.00;100064.50;5033118;28;20196;-74
2021/05/15 02:28:36;;;;;;;38.23;19.80;;;;;;;6.28;100.00;100072.78;5016480;28;20553;-73
2021/05/15 02:31:01;;;;;;;39.97;21.43;;;;;;;6.39;100.00;100069.66;5032682;28;20222;-75
2021/05/15 02:33:27;;;;;;;39.87;22.17;;;;;;;6.33;100.00;100060.19;5034934;28;20280;-75
2021/05/15 02:35:52;;;;;;;39.27;21.20;;;;;;;6.33;100.00;100062.00;5033628;28;20196;-74
2021/05/15 02:38:18;;;;;;;38.43;21.80;;;;;;;6.31;100.00;100058.53;5033392;28;20172;-74
2021/05/15 02:40:46;;;;;;;46.43;22.13;;;;;;;6.25;100.00;100059.69;5034149;28;20187;-75
2021/05/15 02:43:12;;;;;;;35.73;21.97;;;;;;;6.24;100.00;100044.72;5032773;28;20206;-73
2021/05/15 02:45:38;;;;;;;38.70;21.20;;;;;;;6.22;100.00;100060.69;5034274;28;20160;-74
2021/05/15 02:48:03;;;;;;;39.73;22.77;;;;;;;6.21;100.00;100055.47;5033546;28;20245;-74
2021/05/15 02:50:29;;;;;;;46.63;24.03;;;;;;;6.21;100.00;100055.47;5034928;28;20182;-74
2021/05/15 02:52:54;;;;;;;51.93;24.77;;;;;;;6.16;100.00;100057.47;5034558;28;20627;-74
2021/05/15 02:55:22;;;;;;;51.10;24.17;;;;;;;6.10;100.00;100065.72;5016699;28;20173;-74
2021/05/15 02:57:48;;;;;;;48.17;24.20;;;;;;;6.14;100.00;100056.69;5038879;28;20184;-73
2021/05/15 03:00:16;;;;;;;53.50;24.90;;;;;;;6.14;100.00;100061.97;5028544;28;20182;-74
2021/05/15 03:02:42;;;;;;;46.60;25.17;;;;;;;6.11;100.00;100060.34;5040104;28;20207;-74
2021/05/15 03:05:09;;;;;;;47.93;24.73;;;;;;;6.25;100.00;100062.31;5037380;28;20172;-74
2021/05/15 03:07:35;;;;;;;51.80;27.37;;;;;;;6.25;100.00;100057.88;5024991;28;20252;-73
2021/05/15 03:10:00;;;;;;;40.77;24.80;;;;;;;6.22;100.00;100060.69;5038770;28;20200;-73
2021/05/15 03:12:25;;;;;;;54.13;26.67;;;;;;;6.09;100.00;100067.50;5039122;28;20257;-74
2021/05/15 03:14:51;;;;;;;51.17;24.97;;;;;;;6.17;100.00;100059.19;5021313;28;20175;-73
2021/05/15 03:17:16;;;;;;;46.43;25.80;;;;;;;6.19;100.00;100062.63;5037664;28;20223;-73
2021/05/15 03:19:42;;;;;;;48.07;25.93;;;;;;;6.11;100.00;100060.34;5037412;28;20176;-73
2021/05/15 03:22:07;;;;;;;54.20;26.80;;;;;;;6.02;100.00;100047.53;5036728;28;20192;-73
2021/05/15 03:24:33;;;;;;;45.00;25.87;;;;;;;6.08;100.00;100059.63;5037592;28;20191;-73
2021/05/15 03:26:58;;;;;;;49.93;26.00;;;;;;;6.04;100.00;100052.75;5019954;28;20174;-73
2021/05/15 03:29:24;;;;;;;45.00;24.83;;;;;;;6.07;100.00;100058.75;5036666;28;20168;-74
2021/05/15 03:31:50;;;;;;;50.00;25.87;;;;;;;6.01;100.00;100059.06;5037444;28;20236;-73
2021/05/15 03:34:15;;;;;;;48.53;26.17;;;;;;;6.00;100.00;100057.34;5037379;28;20176;-73
2021/05/15 03:36:40;;;;;;;55.00;27.27;;;;;;;6.04;100.00;100053.63;5019544;28;20283;-73
2021/05/15 03:39:06;;;;;;;60.20;29.17;;;;;;;6.07;100.00;100064.06;5037253;28;20255;-73
2021/05/15 03:44:02;;;;;;;50.50;26.30;;;;;;;5.99;100.00;100045.03;5056890;22;20224;-70
2021/05/15 03:46:27;;;;;;;56.57;27.50;;;;;;;5.98;100.00;100050.41;5035188;28;20637;-70
2021/05/15 03:48:52;;;;;;;60.10;27.07;;;;;;;5.99;100.00;100050.31;5036574;28;20519;-71
2021/05/15 03:51:18;;;;;;;56.13;28.33;;;;;;;6.02;100.00;100049.31;5036164;28;20181;-71
2021/05/15 03:53:43;;;;;;;55.43;28.10;;;;;;;6.06;100.00;100040.28;5036609;28;20188;-71
2021/05/15 03:56:09;;;;;;;54.03;26.03;;;;;;;6.08;100.00;100047.25;5034817;28;20593;-71
2021/05/15 03:58:34;;;;;;;65.13;29.77;;;;;;;6.08;100.00;100046.38;5018389;28;20189;-69
2021/05/15 04:00:59;;;;;;;53.87;25.93;;;;;;;6.14;100.00;100049.59;5036122;28;20172;-71
2021/05/15 04:03:25;;;;;;;52.77;27.60;;;;;;;6.17;100.00;100051.25;5034755;28;20192;-71
2021/05/15 04:05:50;;;;;;;56.77;27.20;;;;;;;6.20;100.00;100048.44;5035932;28;20160;-71
2021/05/15 04:08:16;;;;;;;59.20;27.73;;;;;;;6.13;100.00;100042.56;5034940;28;20706;-72
2021/05/15 04:10:42;;;;;;;64.53;27.13;;;;;;;6.24;100.00;100044.72;5036253;28;20186;-72
2021/05/15 04:13:17;;;;;;;55.33;26.67;;;;;;;6.33;100.00;100044.28;5034496;28;20623;-71
2021/05/15 04:16:10;;;;;;;68.60;29.27;;;;;;;6.27;100.00;100045.41;5034748;28;20570;-70
2021/05/15 04:18:30;;;;;;;60.33;29.00;;;;;;;6.44;100.00;100051.72;5035378;28;20184;-72
2021/05/15 04:20:55;;;;;;;54.33;26.63;;;;;;;6.55;100.00;100050.25;5034548;28;20167;-72
2021/05/15 04:23:21;;;;;;;48.73;27.13;;;;;;;6.65;100.00;100049.81;5034392;28;20287;-72
2021/05/15 04:25:46;;;;;;;52.53;26.43;;;;;;;6.64;100.00;100050.75;5034639;28;20169;-72
2021/05/15 04:28:12;;;;;;;50.60;27.63;;;;;;;6.69;100.00;100051.38;5034735;28;20181;-72
2021/05/15 04:30:37;;;;;;;50.33;26.80;;;;;;;6.73;100.00;100052.97;5034386;28;20182;-72
2021/05/15 04:33:02;;;;;;;48.47;25.60;;;;;;;6.80;100.00;100047.28;5034534;28;20211;-72
2021/05/15 04:35:32;;;;;;;51.00;26.27;;;;;;;6.84;100.00;100051.50;5034378;28;20175;-71
2021/05/15 04:37:57;;;;;;;59.80;28.30;;;;;;;6.81;100.00;100056.94;5034619;28;20247;-72
2021/05/15 04:40:22;;;;;;;53.20;28.83;;;;;;;6.94;100.00;100049.22;5036142;28;20236;-72
2021/05/15 04:42:47;;;;;;;53.87;26.27;;;;;;;7.02;100.00;100055.00;5035558;28;20617;-72
2021/05/15 04:45:14;;;;;;;52.20;25.43;;;;;;;7.04;100.00;100050.47;5035847;28;20182;-71
2021/05/15 04:47:39;;;;;;;52.13;25.70;;;;;;;7.14;100.00;100051.75;5037216;28;20587;-72
2021/05/15 04:50:08;;;;;;;55.90;26.57;;;;;;;7.20;100.00;100059.38;5021502;28;20203;-72
2021/05/15 04:52:33;;;;;;;49.77;26.47;;;;;;;7.22;100.00;100061.97;5020276;28;20194;-73
2021/05/15 04:54:58;;;;;;;43.13;24.57;;;;;;;7.31;100.00;100055.31;5040086;28;20174;-73
2021/05/15 04:57:24;;;;;;;47.90;24.23;;;;;;;7.34;100.00;100057.81;5038527;28;20210;-73
2021/05/15 04:59:49;;;;;;;43.67;25.60;;;;;;;7.40;100.00;100065.44;5035338;28;20548;-71
2021/05/15 05:02:15;;;;;;;38.83;23.90;;;;;;;7.41;100.00;100053.88;5019214;28;20196;-72
2021/05/15 05:04:40;;;;;;;36.37;22.40;;;;;;;7.46;100.00;100062.50;5037109;28;20183;-72
2021/05/15 05:07:05;;;;;;;42.53;23.80;;;;;;;7.36;100.00;100058.56;5035779;28;20180;-72
2021/05/15 05:09:30;;;;;;;40.30;22.13;;;;;;;7.45;100.00;100055.47;5033776;28;20681;-71
2021/05/15 05:11:56;;;;;;;41.67;22.80;;;;;;;7.55;100.00;100051.38;5034438;28;20261;-72
2021/05/15 05:14:21;;;;;;;39.57;22.80;;;;;;;7.57;100.00;100052.16;5034610;28;20180;-70
2021/05/15 05:16:47;;;;;;;40.97;22.07;;;;;;;7.49;100.00;100044.59;5033335;28;20195;-71
2021/05/15 05:19:12;;;;;;;33.33;21.10;;;;;;;7.59;100.00;100055.59;5034675;28;20179;-72
2021/05/15 05:21:41;;;;;;;33.90;20.93;;;;;;;7.64;100.00;100052.69;5034789;28;20588;-73
2021/05/15 05:24:07;;;;;;;43.80;22.00;;;;;;;7.72;100.00;100059.31;5016854;28;20230;-72
2021/05/15 05:26:35;;;;;;;35.83;21.80;;;;;;;7.77;100.00;100059.06;5033316;28;20285;-72
2021/05/15 05:29:07;;;;;;;35.43;21.33;;;;;;;7.87;100.00;100059.44;5033413;28;20651;-72
2021/05/15 05:31:33;;;;;;;26.00;17.90;;;;;;;7.96;100.00;100064.25;5034217;28;20160;-72
2021/05/15 05:33:59;;;;;;;35.20;17.17;;;;;;;8.00;100.00;100071.13;5033139;28;20208;-72
2021/05/15 05:36:24;;;;;;;33.77;19.53;;;;;;;8.07;100.00;100068.03;5033081;28;20196;-72
2021/05/15 05:38:49;;;;;;;29.80;18.73;;;;;;;8.20;100.00;100057.59;5016561;28;20203;-72
2021/05/15 05:41:15;;;;;;;30.17;18.83;;;;;;;8.36;100.00;100053.16;5033298;28;20171;-72
2021/05/15 05:43:40;;;;;;;29.67;19.07;;;;;;;8.49;100.00;100057.78;5034241;28;20242;-72
2021/05/15 05:46:05;;;;;;;28.13;19.23;;;;;;;8.57;100.00;100053.78;5033079;28;20179;-72
2021/05/15 05:48:31;;;;;;;31.87;18.77;;;;;;;8.45;100.00;100057.09;5034345;28;20192;-72
2021/05/15 05:50:56;;;;;;;26.13;17.93;;;;;;;8.46;100.00;100059.69;5034305;28;20219;-72
2021/05/15 05:53:22;;;;;;;27.17;17.53;;;;;;;8.39;100.00;100060.13;5032704;28;20331;-72
2021/05/15 05:55:48;;;;;;;23.87;18.23;;;;;;;8.37;100.00;100060.19;5034296;28;20222;-72
2021/05/15 05:58:13;;;;;;;29.97;18.10;;;;;;;8.40;100.00;100067.16;5034864;28;20564;-73
2021/05/15 06:00:38;;;;;;;29.70;18.17;;;;;;;8.26;100.00;100062.56;5033049;28;20179;-74
2021/05/15 06:03:04;;;;;;;26.07;17.90;;;;;;;8.22;100.00;100061.03;5034783;28;20188;-73
2021/05/15 06:05:29;;;;;;;27.60;18.27;;;;;;;7.90;100.00;100068.09;5033318;28;20180;-74
2021/05/15 06:08:06;;;;;;;25.83;17.83;;;;;;;7.86;100.00;100068.34;5033093;28;20187;-73
2021/05/15 06:10:32;;;;;;;29.30;19.77;;;;;;;7.96;100.00;100072.22;5034069;28;20171;-73
2021/05/15 06:12:57;;;;;;;23.00;16.13;;;;;;;8.25;100.00;100079.47;5032785;28;20199;-73
2021/05/15 06:15:24;;;;;;;30.60;18.20;;;;;;;8.20;100.00;100076.22;5033582;28;20179;-73
2021/05/15 06:17:50;;;;;;;30.37;17.10;;;;;;;8.33;99.86;100079.94;5033441;28;20196;-73
2021/05/15 06:20:16;;;;;;;26.23;16.17;;;;;;;8.43;100.00;100078.47;5032278;28;20178;-72
2021/05/15 06:22:41;;;;;;;23.40;14.57;;;;;;;8.61;95.37;100086.38;5032355;28;20196;-71
2021/05/15 06:25:07;;;;;;;20.60;14.80;;;;;;;8.74;93.28;100082.06;5032254;28;20541;-71
2021/05/15 06:27:32;;;;;;;19.47;14.43;;;;;;;8.68;91.22;100077.09;5033459;28;20168;-71
2021/05/15 06:29:57;;;;;;;22.33;14.70;;;;;;;8.43;92.13;100073.16;5015527;28;20640;-72
2021/05/15 06:32:23;;;;;;;18.37;13.57;;;;;;;8.81;92.22;100070.13;5032304;28;20203;-72
2021/05/15 06:34:48;;;;;;;18.43;13.60;;;;;;;8.71;91.97;100060.94;5032140;28;20188;-72
2021/05/15 06:37:13;;;;;;;17.97;13.20;;;;;;;9.12;92.03;100068.34;5033266;28;20196;-72
2021/05/15 06:39:38;;;;;;;14.73;11.83;;;;;;;9.22;89.39;100064.16;5032426;28;20176;-72
2021/05/15 06:42:04;;;;;;;14.27;11.30;;;;;;;9.27;88.21;100062.94;5033239;28;20310;-72
2021/05/15 06:44:29;;;;;;;19.70;11.93;;;;;;;9.29;90.47;100061.06;5038248;28;20160;-72
2021/05/15 06:46:55;;;;;;;15.57;11.57;;;;;;;9.03;88.05;100065.28;5051262;28;20195;-72
2021/05/15 06:49:20;;;;;;;16.17;12.40;;;;;;;8.93;88.55;100061.44;5052134;28;20176;-72
2021/05/15 06:51:45;;;;;;;15.50;12.27;;;;;;;9.30;89.25;100059.28;5051313;28;20513;-72
2021/05/15 06:54:11;;;;;;;13.70;10.97;;;;;;;9.38;88.75;100063.19;5034482;28;20179;-72
2021/05/15 06:56:36;;;;;;;15.70;11.17;;;;;;;9.50;88.83;100064.25;5046701;28;20192;-73
2021/05/15 06:59:01;;;;;;;13.47;11.27;;;;;;;9.60;88.50;100060.06;5034595;28;20226;-73
2021/05/15 07:01:27;;;;;;;15.13;11.67;;;;;;;9.80;87.17;100064.19;5032299;28;20192;-73
2021/05/15 07:03:52;;;;;;;15.73;11.07;;;;;;;9.92;86.50;100063.41;5031872;28;20203;-73
2021/05/15 07:06:17;;;;;;;13.17;11.00;;;;;;;9.93;85.72;100067.78;5032215;28;20251;-73
2021/05/15 07:08:42;;;;;;;17.50;11.03;;;;;;;10.07;83.80;100064.28;5033471;28;20180;-74
2021/05/15 07:11:08;;;;;;;14.73;11.10;;;;;;;10.36;82.99;100074.91;5033514;28;20245;-74
2021/05/15 07:13:33;;;;;;;14.07;9.77;;;;;;;10.27;80.69;100074.56;5031764;28;20680;-74
2021/05/15 07:15:58;;;;;;;13.93;10.33;;;;;;;10.34;82.51;100067.88;5031595;28;20672;-74
2021/05/15 07:18:24;;;;;;;12.97;9.03;;;;;;;10.57;80.88;100066.41;5032033;28;20176;-74
2021/05/15 07:20:49;;;;;;;12.33;7.47;;;;;;;10.71;79.64;100073.50;5031733;28;20274;-74
2021/05/15 07:23:15;;;;;;;10.97;8.17;;;;;;;10.71;78.07;100064.63;5031655;28;20238;-75
2021/05/15 07:25:40;;;;;;;9.33;7.53;;;;;;;10.41;80.15;100062.16;5031721;28;20757;-74
2021/05/15 07:28:05;;;;;;;9.07;7.87;;;;;;;10.85;78.70;100068.13;5033163;28;20180;-74
2021/05/15 07:30:30;;;;;;;13.23;7.47;;;;;;;10.78;78.25;100066.81;5015053;28;20187;-73
2021/05/15 07:33:00;;;;;;;8.97;6.93;;;;;;;11.24;77.09;100058.41;5031483;28;20576;-74
2021/05/15 07:35:25;;;;;;;9.27;6.20;;;;;;;11.42;77.01;100073.16;5015778;28;20180;-73
2021/05/15 07:37:52;;;;;;;10.47;6.17;;;;;;;11.44;75.94;100065.91;5032288;28;20200;-74
2021/05/15 07:40:17;;;;;;;6.23;5.17;;;;;;;11.62;75.57;100054.94;5031869;28;20169;-74
2021/05/15 07:42:44;;;;;;;8.47;6.27;;;;;;;11.66;75.07;100056.41;5014464;28;20215;-74
2021/05/15 07:45:09;;;;;;;9.57;6.47;;;;;;;11.78;75.12;100056.44;5031345;28;20540;-73
2021/05/15 07:47:35;;;;;;;8.40;5.27;;;;;;;12.12;73.10;100046.88;5032417;28;20161;-73
2021/05/15 07:50:00;;;;;;;7.30;5.60;;;;;;;12.33;73.14;100055.19;5031731;28;20173;-72
2021/05/15 07:52:27;;;;;;;10.40;5.63;;;;;;;11.98;73.12;100049.69;5031278;28;20273;-74
2021/05/15 07:54:53;;;;;;;9.73;5.03;;;;;;;12.18;74.14;100050.94;5034585;28;20568;-74
2021/05/15 07:57:19;;;;;;;7.40;5.60;;;;;;;12.15;73.58;100059.19;5018387;28;20242;-75
2021/05/15 07:59:44;;;;;;;8.23;5.43;;;;;;;12.58;72.31;100048.03;5035332;28;20164;-74
2021/05/15 08:02:10;;;;;;;7.43;5.47;;;;;;;12.90;69.05;100048.34;5034722;28;20200;-75
2021/05/15 08:04:35;;;;;;;10.03;5.60;;;;;;;12.83;70.70;100048.78;5036387;28;20707;-74
2021/05/15 08:07:00;;;;;;;6.80;5.30;;;;;;;13.09;69.44;100054.03;5018419;28;20168;-74
2021/05/15 08:09:26;;;;;;;10.20;5.67;;;;;;;13.30;68.81;100047.06;5035088;28;20179;-74
2021/05/15 08:11:51;;;;;;;8.50;5.83;;;;;;;13.28;68.04;100051.69;5036664;28;20176;-73
2021/05/15 08:14:16;;;;;;;5.93;5.33;;;;;;;13.11;69.54;100049.41;5034688;28;20698;-74
2021/05/15 08:16:41;;;;;;;7.47;5.60;;;;;;;13.56;67.68;100046.88;5035980;28;20199;-74
2021/05/15 08:19:07;;;;;;;7.83;5.90;;;;;;;13.62;69.66;100051.78;5035063;28;20191;-75
2021/05/15 08:21:32;;;;;;;7.50;5.43;;;;;;;13.83;65.83;100044.75;5019014;28;20540;-76
2021/05/15 08:23:58;;;;;;;9.60;5.90;;;;;;;13.45;67.61;100043.22;5034902;28;20534;-74
2021/05/15 08:26:26;;;;;;;8.50;5.97;;;;;;;13.61;67.19;100039.34;5018543;28;20176;-75
2021/05/15 08:28:52;;;;;;;11.83;7.10;;;;;;;13.18;68.17;100042.66;5018277;28;20204;-74
2021/05/15 08:31:18;;;;;;;9.00;6.40;;;;;;;13.74;66.65;100046.28;5018279;28;20172;-75
2021/05/15 08:33:43;;;;;;;9.97;6.87;;;;;;;14.00;65.50;100046.06;5018178;28;20211;-75
2021/05/15 08:36:10;;;;;;;11.20;6.67;;;;;;;14.11;64.85;100047.88;5017697;28;20211;-75
2021/05/15 08:38:36;;;;;;;11.50;6.80;;;;;;;14.63;63.16;100045.44;5035817;28;20671;-76
2021/05/15 08:41:04;;;;;;;8.03;6.20;;;;;;;13.97;64.56;100036.44;5036044;28;20294;-75
2021/05/15 08:43:32;;;;;;;9.40;5.90;;;;;;;14.97;62.85;100039.94;5018283;28;20243;-76
2021/05/15 08:45:59;;;;;;;6.63;5.40;;;;;;;15.06;59.95;100041.88;5034572;28;20656;-76
2021/05/15 08:48:28;;;;;;;6.97;5.20;;;;;;;14.94;60.42;100032.16;5034801;28;20184;-75
2021/05/15 08:50:54;;;;;;;9.50;6.43;;;;;;;14.69;61.01;100036.00;5034378;28;20211;-75
2021/05/15 08:53:20;;;;;;;11.10;6.43;;;;;;;14.83;61.24;100032.16;5034502;28;20227;-74
2021/05/15 08:55:45;;;;;;;8.07;5.17;;;;;;;15.73;59.86;100032.59;5034530;28;20171;-75
2021/05/15 08:58:11;;;;;;;8.70;5.33;;;;;;;15.91;57.62;100029.13;5017959;28;20176;-75
2021/05/15 09:00:38;;;;;;;10.33;6.20;;;;;;;15.74;58.08;100015.47;5034217;28;20169;-75
2021/05/15 09:03:06;;;;;;;8.30;6.00;;;;;;;15.99;56.09;100024.94;5034270;28;20192;-75
2021/05/15 09:05:34;;;;;;;12.10;6.70;;;;;;;15.78;56.39;100035.75;5033561;28;20173;-75
2021/05/15 09:08:00;;;;;;;7.77;5.70;;;;;;;15.95;57.16;100027.88;5035328;28;20271;-75
2021/05/15 09:10:30;;;;;;;9.10;6.27;;;;;;;15.06;58.59;100025.75;5034872;28;20168;-75
2021/05/15 09:13:13;;;;;;;7.50;5.57;;;;;;;15.98;56.51;100026.75;5034075;28;20200;-75
2021/05/15 09:15:40;;;;;;;6.97;5.10;;;;;;;15.92;57.18;100035.38;5033697;28;20258;-75
2021/05/15 09:18:06;;;;;;;7.57;5.83;;;;;;;15.57;56.93;100033.03;5033852;28;20632;-75
2021/05/15 09:20:37;;;;;;;10.13;5.40;;;;;;;16.08;55.92;100030.38;5033636;28;20207;-76
2021/05/15 09:23:24;;;;;;;7.47;5.90;;;;;;;16.40;55.00;100024.81;5034426;28;20330;-75
2021/05/15 09:25:58;;;;;;;8.77;5.50;;;;;;;16.76;53.50;100025.19;5036282;28;20176;-75
2021/05/15 09:28:35;;;;;;;6.90;5.07;;;;;;;16.75;54.21;100016.25;5018742;28;20207;-75
2021/05/15 09:31:20;;;;;;;8.33;5.63;;;;;;;16.31;54.65;100020.22;5035132;28;20190;-75
2021/05/15 09:33:50;;;;;;;7.97;5.50;;;;;;;16.79;54.95;100019.53;5034631;28;20192;-74
2021/05/15 09:36:24;;;;;;;9.53;6.00;;;;;;;17.11;53.47;100019.25;5016938;28;20271;-74
2021/05/15 09:39:05;;;;;;;7.13;5.33;;;;;;;17.17;52.89;100026.78;5033868;28;20164;-75
2021/05/15 09:41:49;;;;;;;8.33;4.70;;;;;;;16.58;54.70;100014.19;5034432;28;20244;-75
2021/05/15 09:44:26;;;;;;;7.40;5.40;;;;;;;16.72;53.81;100012.97;5051672;23;20766;-73
2021/05/15 09:46:52;;;;;;;7.33;5.20;;;;;;;16.86;53.90;100012.56;5049501;28;20171;-74
2021/05/15 09:49:24;;;;;;;7.70;4.93;;;;;;;15.80;56.34;100015.78;5033499;28;20218;-73
2021/05/15 09:52:05;;;;;;;8.77;5.07;;;;;;;16.08;55.66;100007.97;5034470;28;20171;-73
2021/05/15 09:54:44;;;;;;;7.93;5.43;;;;;;;16.17;55.20;100002.63;5030851;28;20359;-72
2021/05/15 09:57:17;;;;;;;7.73;5.23;;;;;;;16.71;53.19;100006.72;5029745;28;20204;-72
2021/05/15 09:59:47;;;;;;;10.23;5.00;;;;;;;17.25;50.63;99999.94;5014655;28;20197;-72
2021/05/15 10:02:18;;;;;;;5.63;3.87;;;;;;;16.87;51.90;99995.41;5029278;28;20180;-74
2021/05/15 10:04:44;;;;;;;5.23;4.20;;;;;;;16.80;52.86;99992.44;5029865;28;20518;-73
2021/05/15 10:07:26;;;;;;;5.57;4.03;;;;;;;16.47;52.34;99990.94;5029334;28;20177;-72
2021/05/15 10:09:51;;;;;;;8.57;4.60;;;;;;;15.82;54.16;99994.13;4997109;28;20165;-72
2021/05/15 10:12:17;;;;;;;7.87;4.97;;;;;;;15.62;55.42;99995.88;5029067;28;20227;-73
2021/05/15 10:14:42;;;;;;;6.73;4.23;;;;;;;15.78;55.57;99995.38;5029490;28;20181;-72
2021/05/15 10:17:08;;;;;;;6.27;4.20;;;;;;;16.04;54.65;99993.94;5029687;28;20205;-72
2021/05/15 10:19:33;;;;;;;6.67;4.53;;;;;;;16.30;54.22;99983.50;5014151;28;20692;-72
2021/05/15 10:21:59;;;;;;;7.20;4.57;;;;;;;16.29;54.01;99973.72;5029571;28;20208;-73
2021/05/15 10:24:27;;;;;;;5.27;4.10;;;;;;;16.18;53.37;99987.31;5030489;28;20228;-73
2021/05/15 10:27:01;;;;;;;6.03;4.37;;;;;;;16.19;54.26;99983.63;5014167;28;20676;-75
2021/05/15 10:29:38;;;;;;;4.63;3.77;;;;;;;16.09;55.04;99980.94;5014840;28;20644;-72
2021/05/15 10:32:03;;;;;;;6.17;3.37;;;;;;;16.19;55.18;99975.56;5015540;28;20173;-73
2021/05/15 10:34:33;;;;;;;5.57;3.90;;;;;;;16.55;53.62;99980.31;5014844;28;20214;-72
2021/05/15 10:36:58;;;;;;;6.63;4.20;;;;;;;17.05;52.12;99982.91;5015719;28;20192;-73
2021/05/15 10:39:29;;;;;;;7.30;3.57;;;;;;;17.67;49.94;99972.59;5036302;28;20251;-75
2021/05/15 10:41:55;;;;;;;6.60;3.60;;;;;;;17.96;50.29;99967.09;5014412;28;20656;-74
2021/05/15 10:44:21;;;;;;;5.50;4.30;;;;;;;18.55;47.40;99971.16;5014575;28;20288;-73
2021/05/15 10:46:50;;;;;;;6.37;3.47;;;;;;;19.14;45.92;99965.16;5016393;28;20173;-74
2021/05/15 10:49:18;;;;;;;5.43;3.40;;;;;;;18.44;47.70;99972.22;5016013;28;20188;-73
2021/05/15 10:51:47;;;;;;;5.03;3.80;;;;;;;17.71;49.71;99964.06;5014316;28;20169;-73
2021/05/15 10:54:15;;;;;;;7.77;4.40;;;;;;;16.45;51.96;99957.06;5014832;28;20216;-74
2021/05/15 10:56:41;;;;;;;5.77;3.70;;;;;;;17.08;51.18;99957.50;5012819;28;20212;-73
2021/05/15 10:59:08;;;;;;;5.60;3.70;;;;;;;17.32;50.43;99951.66;5012992;28;20181;-71
2021/05/15 11:01:54;;;;;;;5.93;3.80;;;;;;;18.20;47.58;99943.06;5014091;28;20184;-72
2021/05/15 11:04:31;;;;;;;5.37;3.60;;;;;;;17.57;47.70;99942.09;5013707;28;20201;-72
2021/05/15 11:07:04;;;;;;;4.47;3.67;;;;;;;17.05;49.31;99944.31;5012469;28;20503;-71
2021/05/15 11:09:31;;;;;;;5.47;3.40;;;;;;;17.20;48.68;99937.50;5013553;28;20176;-72
2021/05/15 11:12:09;;;;;;;6.13;3.03;;;;;;;18.87;44.84;99940.91;5012419;28;20243;-73
2021/05/15 11:14:36;;;;;;;4.90;2.87;;;;;;;19.43;44.28;99935.09;5012874;28;20242;-71
2021/05/15 11:17:22;;;;;;;5.93;3.20;;;;;;;20.85;40.89;99944.31;5012040;28;20204;-73
2021/05/15 11:20:03;;;;;;;4.60;2.83;;;;;;;23.35;36.35;99948.88;5029495;28;20560;-74